Time;durP1;ratioP1;P1;durP2;ratioP2;P2;SDS_P1;SDS_P2;PMS_P1;PMS_P2;Temp;Humidity;BMP_temperature;BMP_pressure;BME280_temperature;BME280_humidity;BME280_pressure;Samples;Min_cycle;Max_cycle;Signal;HPM_P1;HPM_P2
2022/03/24 00:02:25;;;;;;;60.27;32.23;;;;;;;;;;5019303;28;20184;-89
2022/03/24 00:04:50;;;;;;;69.95;36.47;;;12.70;45.90;;;;;;5028762;28;20182;-89
2022/03/24 00:07:17;;;;;;;65.47;32.53;;;;;;;;;;5025682;28;20274;-89
2022/03/24 00:09:43;;;;;;;70.45;32.45;;;12.50;46.30;;;;;;5056946;23;20498;-89
2022/03/24 00:12:10;;;;;;;67.05;31.48;;;12.40;47.10;;;;;;5077522;28;20176;-89
2022/03/24 00:14:36;;;;;;;76.10;34.45;;;12.40;46.70;;;;;;5059714;28;20176;-89
2022/03/24 00:17:02;;;;;;;69.73;31.60;;;12.50;47.60;;;;;;5060296;28;20176;-89
2022/03/24 00:19:28;;;;;;;66.35;33.05;;;12.80;47.50;;;;;;5073419;28;20274;-90
2022/03/24 00:21:54;;;;;;;54.60;30.27;;;12.70;47.10;;;;;;5080939;28;20245;-90
2022/03/24 00:24:54;;;;;;;55.40;28.65;;;12.70;47.30;;;;;;5087460;28;20430;-90
2022/03/24 00:27:20;;;;;;;61.10;31.42;;;12.50;47.60;;;;;;5100642;28;20596;-88
2022/03/24 00:29:45;;;;;;;60.60;31.33;;;12.40;47.90;;;;;;5103476;28;20242;-88
2022/03/24 00:32:12;;;;;;;60.20;32.73;;;12.40;48.10;;;;;;5082449;28;20793;-87
2022/03/24 00:34:38;;;;;;;64.80;31.70;;;12.40;48.10;;;;;;5080289;28;20214;-87
2022/03/24 00:37:04;;;;;;;62.17;34.22;;;12.40;48.20;;;;;;5083145;28;20179;-89
2022/03/24 00:39:33;;;;;;;64.53;32.58;;;12.40;48.30;;;;;;5091562;28;20203;-88
2022/03/24 00:42:07;;;;;;;69.43;33.60;;;12.30;48.80;;;;;;5088794;28;20389;-89
2022/03/24 00:44:33;;;;;;;61.55;30.30;;;12.20;49.00;;;;;;5093350;28;20187;-89
2022/03/24 00:46:59;;;;;;;67.50;33.38;;;12.20;49.20;;;;;;5112672;28;20188;-90
2022/03/24 00:49:26;;;;;;;64.57;32.90;;;12.10;49.40;;;;;;5113276;28;20207;-89
2022/03/24 00:51:52;;;;;;;72.50;32.13;;;12.20;49.40;;;;;;5112383;28;20235;-89
2022/03/24 00:54:18;;;;;;;78.20;34.43;;;12.10;49.50;;;;;;5094654;28;20171;-90
2022/03/24 00:56:45;;;;;;;60.28;31.52;;;12.10;49.70;;;;;;5097695;28;20414;-90
2022/03/24 00:59:11;;;;;;;65.38;31.80;;;12.20;49.70;;;;;;5097873;28;20206;-90
2022/03/24 01:01:39;;;;;;;56.47;31.17;;;12.20;49.70;;;;;;5098258;28;20247;-90
2022/03/24 01:04:06;;;;;;;62.20;33.10;;;12.20;49.80;;;;;;5089249;28;20184;-89
2022/03/24 01:06:34;;;;;;;66.20;34.92;;;12.10;50.00;;;;;;5086159;28;20176;-89
2022/03/24 01:09:01;;;;;;;57.78;31.77;;;12.00;50.10;;;;;;5087922;28;20219;-89
2022/03/24 01:11:27;;;;;;;60.75;31.55;;;11.90;50.50;;;;;;5089290;28;20207;-89
2022/03/24 01:13:53;;;;;;;65.85;31.52;;;11.80;50.70;;;;;;5090924;28;20186;-90
2022/03/24 01:16:19;;;;;;;65.73;32.33;;;11.90;50.90;;;;;;5108562;28;20586;-88
2022/03/24 01:18:45;;;;;;;61.37;32.50;;;12.00;50.80;;;;;;5092646;28;20191;-90
2022/03/24 01:21:12;;;;;;;75.57;31.90;;;11.90;50.80;;;;;;5083337;28;20175;-89
2022/03/24 01:23:37;;;;;;;53.53;29.80;;;11.80;51.00;;;;;;5101648;27;20179;-89
2022/03/24 01:26:06;;;;;;;65.78;32.38;;;11.80;51.20;;;;;;5090179;28;20176;-89
2022/03/24 01:28:33;;;;;;;53.53;31.02;;;11.80;51.30;;;;;;5081994;28;20196;-88
2022/03/24 01:30:59;;;;;;;61.50;30.85;;;11.90;51.40;;;;;;5079356;28;20235;-89
2022/03/24 01:33:25;;;;;;;80.93;31.20;;;11.90;51.50;;;;;;5078807;28;20179;-92
2022/03/24 01:35:52;;;;;;;64.43;32.60;;;11.80;51.60;;;;;;5077919;28;20422;-91
2022/03/24 01:38:18;;;;;;;62.25;30.42;;;11.80;51.60;;;;;;5077796;28;20615;-91
2022/03/24 01:40:44;;;;;;;63.72;32.22;;;11.90;52.50;;;;;;5078150;28;20730;-92
2022/03/24 01:43:10;;;;;;;58.40;30.55;;;11.90;52.40;;;;;;5061818;28;20485;-91
2022/03/24 01:45:37;;;;;;;62.70;32.25;;;11.90;51.70;;;;;;5058291;28;20184;-88
2022/03/24 01:48:04;;;;;;;59.58;30.27;;;11.90;51.80;;;;;;5056889;28;20183;-89
2022/03/24 01:50:31;;;;;;;54.75;28.55;;;;;;;;;;5071428;28;20196;-89
2022/03/24 01:52:56;;;;;;;53.83;29.40;;;11.90;51.40;;;;;;5078211;28;20183;-88
2022/03/24 01:55:23;;;;;;;62.03;30.63;;;12.00;52.00;;;;;;5077452;28;20172;-89
2022/03/24 01:57:49;;;;;;;63.00;31.27;;;12.00;51.70;;;;;;5091014;28;20165;-89
2022/03/24 02:00:15;;;;;;;62.40;31.35;;;12.00;51.70;;;;;;5083460;28;20283;-88
2022/03/24 02:02:42;;;;;;;61.42;30.67;;;11.90;51.80;;;;;;5086909;28;20176;-88
2022/03/24 02:05:08;;;;;;;61.03;30.15;;;11.90;51.70;;;;;;5063949;28;20185;-90
2022/03/24 02:07:34;;;;;;;58.60;28.58;;;11.80;51.70;;;;;;5069059;28;20176;-89
2022/03/24 02:10:01;;;;;;;65.43;30.83;;;11.80;51.80;;;;;;5053816;28;20224;-89
2022/03/24 02:12:27;;;;;;;58.90;30.45;;;11.60;51.30;;;;;;5078816;28;20176;-88
2022/03/24 02:14:58;;;;;;;54.67;28.60;;;11.60;52.10;;;;;;5065479;28;20180;-90
2022/03/24 02:17:29;;;;;;;63.10;31.45;;;11.40;52.00;;;;;;5058414;28;20184;-90
2022/03/24 02:19:57;;;;;;;55.15;32.05;;;11.20;52.90;;;;;;5076222;28;20728;-90
2022/03/24 02:22:24;;;;;;;63.08;30.17;;;11.10;53.40;;;;;;5056845;28;20644;-88
2022/03/24 02:24:50;;;;;;;66.03;32.03;;;11.20;53.50;;;;;;5062538;28;20223;-88
2022/03/24 02:27:16;;;;;;;67.55;34.10;;;11.30;53.30;;;;;;5076535;28;20263;-88
2022/03/24 02:29:42;;;;;;;70.85;31.10;;;11.40;53.20;;;;;;5070910;28;20204;-88
2022/03/24 02:32:11;;;;;;;69.90;32.03;;;11.40;53.00;;;;;;5082837;28;20179;-89
2022/03/24 02:34:37;;;;;;;63.75;30.73;;;11.30;52.90;;;;;;5073571;28;20188;-88
2022/03/24 02:37:07;;;;;;;66.82;32.95;;;11.10;53.30;;;;;;5057989;28;20199;-90
2022/03/24 02:39:39;;;;;;;73.05;31.90;;;11.20;53.50;;;;;;5084160;28;20544;-90
2022/03/24 02:42:06;;;;;;;68.38;30.58;;;11.30;53.50;;;;;;5070376;28;20226;-89
2022/03/24 02:44:32;;;;;;;64.65;31.90;;;11.20;53.40;;;;;;5069159;28;20177;-88
2022/03/24 02:47:02;;;;;;;65.13;31.88;;;11.10;53.40;;;;;;5068226;28;20199;-87
2022/03/24 02:49:30;;;;;;;57.60;29.88;;;11.20;53.50;;;;;;5060406;28;20196;-87
2022/03/24 02:52:01;;;;;;;71.35;31.08;;;11.20;53.50;;;;;;5057181;28;20168;-88
2022/03/24 02:54:29;;;;;;;61.45;29.30;;;11.20;52.90;;;;;;5057365;28;20215;-88
2022/03/24 02:56:55;;;;;;;58.92;31.13;;;11.20;52.90;;;;;;5057431;28;20172;-88
2022/03/24 02:59:21;;;;;;;62.33;32.42;;;11.10;52.70;;;;;;5075802;28;20197;-90
2022/03/24 03:02:08;;;;;;;58.67;30.90;;;11.00;53.60;;;;;;5057676;28;20237;-89
2022/03/24 03:04:53;;;;;;;60.72;32.30;;;10.90;54.00;;;;;;5057076;28;20497;-88
2022/03/24 03:07:22;;;;;;;67.25;31.45;;;10.90;54.20;;;;;;5056806;28;20191;-88
2022/03/24 03:09:49;;;;;;;69.95;34.83;;;10.90;54.10;;;;;;5057105;28;20261;-88
2022/03/24 03:12:16;;;;;;;62.58;29.83;;;10.90;54.20;;;;;;5057435;28;20263;-88
2022/03/24 03:14:42;;;;;;;65.43;32.90;;;11.00;54.20;;;;;;5057144;28;20175;-88
2022/03/24 03:17:09;;;;;;;71.90;29.87;;;11.10;54.10;;;;;;5075338;28;20271;-88
2022/03/24 03:19:34;;;;;;;63.05;33.08;;;11.00;54.00;;;;;;5057225;28;20462;-88
2022/03/24 03:22:01;;;;;;;66.83;31.87;;;10.90;54.20;;;;;;5068385;28;20226;-89
2022/03/24 03:24:26;;;;;;;59.30;28.85;;;10.80;54.30;;;;;;5080763;28;20415;-89
2022/03/24 03:26:53;;;;;;;56.07;29.87;;;10.90;54.80;;;;;;5075319;28;20180;-90
2022/03/24 03:29:22;;;;;;;66.90;30.85;;;11.00;53.90;;;;;;5092529;28;20184;-88
2022/03/24 03:31:50;;;;;;;65.28;29.00;;;11.00;53.80;;;;;;5074999;28;20192;-87
2022/03/24 03:34:15;;;;;;;58.70;29.98;;;11.00;54.60;;;;;;5078688;28;20179;-87
2022/03/24 03:36:42;;;;;;;67.50;30.23;;;11.00;54.50;;;;;;5078465;28;20177;-87
2022/03/24 03:39:08;;;;;;;59.83;30.48;;;11.10;54.50;;;;;;5074522;28;20438;-87
2022/03/24 03:41:35;;;;;;;64.03;32.03;;;11.00;54.60;;;;;;5060854;28;20176;-87
2022/03/24 03:44:02;;;;;;;68.90;32.53;;;10.90;54.70;;;;;;5061889;28;20179;-87
2022/03/24 03:46:27;;;;;;;69.00;29.20;;;10.80;54.80;;;;;;5063231;28;20180;-87
2022/03/24 03:48:54;;;;;;;62.80;31.23;;;10.90;55.20;;;;;;5060186;28;20192;-87
2022/03/24 03:51:20;;;;;;;58.88;31.13;;;11.20;54.30;;;;;;5060678;28;20552;-88
2022/03/24 03:53:45;;;;;;;64.50;30.63;;;11.10;55.10;;;;;;5059945;28;20199;-87
2022/03/24 03:56:12;;;;;;;68.83;33.70;;;11.10;54.90;;;;;;5074324;28;20414;-88
2022/03/24 03:58:38;;;;;;;64.22;30.95;;;11.00;55.10;;;;;;5075355;28;20210;-87
2022/03/24 04:01:05;;;;;;;67.45;33.08;;;11.00;54.90;;;;;;5096809;28;20250;-90
2022/03/24 04:03:33;;;;;;;63.75;32.35;;;11.10;54.90;;;;;;5095698;28;20208;-88
2022/03/24 04:06:10;;;;;;;63.20;30.92;;;11.00;54.50;;;;;;5075583;28;20181;-88
2022/03/24 04:08:37;;;;;;;57.67;30.17;;;10.90;54.70;;;;;;5078398;28;20195;-88
2022/03/24 04:11:07;;;;;;;64.80;31.60;;;10.70;54.90;;;;;;5078208;28;20208;-88
2022/03/24 04:13:34;;;;;;;58.80;31.40;;;10.50;55.30;;;;;;5077193;28;20161;-88
2022/03/24 04:16:01;;;;;;;59.00;32.45;;;10.50;55.60;;;;;;5089361;28;20176;-87
2022/03/24 04:18:26;;;;;;;60.70;30.45;;;10.40;55.80;;;;;;5068317;28;20199;-88
2022/03/24 04:20:52;;;;;;;66.40;31.47;;;10.20;56.70;;;;;;5066224;28;20181;-88
2022/03/24 04:23:19;;;;;;;59.93;31.87;;;9.90;57.20;;;;;;5044129;28;20204;-88
2022/03/24 04:25:45;;;;;;;64.78;32.17;;;9.90;57.70;;;;;;5060533;28;20678;-89
2022/03/24 04:28:11;;;;;;;76.03;33.45;;;10.10;57.40;;;;;;5062306;28;20192;-89
2022/03/24 04:30:37;;;;;;;67.85;32.38;;;10.10;58.10;;;;;;5083062;28;20249;-88
2022/03/24 04:33:07;;;;;;;52.90;28.60;;;10.10;57.70;;;;;;5079596;28;20249;-88
2022/03/24 04:35:35;;;;;;;76.97;32.53;;;10.00;57.90;;;;;;5079309;28;20206;-88
2022/03/24 04:38:03;;;;;;;69.88;31.42;;;10.00;57.90;;;;;;5067191;28;20632;-87
2022/03/24 04:40:29;;;;;;;60.75;30.45;;;10.00;57.90;;;;;;5060479;28;20185;-88
2022/03/24 04:42:55;;;;;;;66.13;33.83;;;10.00;58.00;;;;;;5067119;28;20188;-87
2022/03/24 04:45:22;;;;;;;69.28;33.40;;;10.00;58.00;;;;;;5060397;28;20173;-87
2022/03/24 04:47:48;;;;;;;66.15;31.58;;;10.10;58.10;;;;;;5060816;28;20262;-88
2022/03/24 04:50:15;;;;;;;69.45;32.50;;;10.20;58.00;;;;;;5063289;28;20211;-87
2022/03/24 04:52:42;;;;;;;63.30;32.72;;;10.20;57.90;;;;;;5073718;28;20176;-87
2022/03/24 04:55:09;;;;;;;65.38;31.67;;;10.00;57.80;;;;;;5069722;28;20181;-88
2022/03/24 04:57:35;;;;;;;63.10;32.40;;;10.00;58.50;;;;;;5043079;28;20180;-90
2022/03/24 05:00:01;;;;;;;66.03;31.73;;;10.20;58.50;;;;;;5059327;28;20230;-90
2022/03/24 05:02:27;;;;;;;61.03;32.03;;;10.20;58.50;;;;;;5062385;28;20180;-90
2022/03/24 05:04:54;;;;;;;74.77;32.00;;;10.10;58.90;;;;;;5062787;28;20211;-88
2022/03/24 05:07:20;;;;;;;66.72;32.50;;;10.20;58.60;;;;;;5061147;28;20180;-89
2022/03/24 05:09:46;;;;;;;68.50;34.00;;;10.30;58.50;;;;;;5082166;28;20244;-88
2022/03/24 05:12:12;;;;;;;64.45;34.42;;;10.00;58.50;;;;;;5077860;28;20262;-89
2022/03/24 05:14:38;;;;;;;72.20;31.20;;;9.80;58.90;;;;;;5093555;28;20190;-88
2022/03/24 05:17:06;;;;;;;67.93;30.57;;;9.90;59.40;;;;;;5090567;28;20817;-89
2022/03/24 05:19:32;;;;;;;62.13;32.22;;;9.90;59.30;;;;;;5064298;28;20203;-89
2022/03/24 05:21:58;;;;;;;67.20;33.58;;;9.70;59.60;;;;;;5078790;28;20190;-89
2022/03/24 05:24:24;;;;;;;61.43;31.57;;;9.70;59.80;;;;;;5078833;28;20266;-89
2022/03/24 05:26:50;;;;;;;59.30;28.73;;;9.80;59.90;;;;;;5079038;28;20417;-88
2022/03/24 05:29:16;;;;;;;54.78;29.95;;;9.70;59.40;;;;;;5080727;28;20274;-89
2022/03/24 05:31:41;;;;;;;63.17;30.27;;;9.70;60.00;;;;;;5107442;28;20191;-88
2022/03/24 05:34:07;;;;;;;75.50;33.27;;;9.60;59.80;;;;;;5081015;28;20426;-89
2022/03/24 05:36:33;;;;;;;60.13;29.50;;;9.40;60.30;;;;;;5085801;28;20173;-88
2022/03/24 05:38:59;;;;;;;68.13;30.53;;;9.40;60.00;;;;;;5073821;28;20200;-87
2022/03/24 05:41:26;;;;;;;60.80;30.40;;;9.60;61.00;;;;;;5072791;28;20687;-88
2022/03/24 05:44:04;;;;;;;60.97;32.42;;;9.80;60.20;;;;;;5072735;28;20444;-88
2022/03/24 05:46:33;;;;;;;63.47;30.45;;;9.90;60.00;;;;;;5065140;28;20184;-89
2022/03/24 05:49:00;;;;;;;61.85;30.83;;;9.60;60.10;;;;;;5077776;28;20260;-88
2022/03/24 05:51:26;;;;;;;55.42;30.38;;;9.60;60.40;;;;;;5058854;28;20209;-88
2022/03/24 05:53:52;;;;;;;60.85;30.83;;;;;;;;;;5062966;28;20172;-88
2022/03/24 05:56:19;;;;;;;72.10;33.15;;;9.60;60.20;;;;;;5076809;28;20195;-88
2022/03/24 05:58:45;;;;;;;66.35;31.05;;;9.80;60.80;;;;;;5068846;28;20192;-89
2022/03/24 06:01:14;;;;;;;70.40;31.17;;;9.90;60.40;;;;;;5069627;28;20188;-87
2022/03/24 06:03:40;;;;;;;60.72;31.02;;;10.00;60.00;;;;;;5093043;28;20188;-86
2022/03/24 06:06:08;;;;;;;54.35;28.85;;;10.20;59.80;;;;;;5079352;28;20276;-87
2022/03/24 06:08:35;;;;;;;67.07;32.30;;;10.70;59.00;;;;;;5108533;28;20204;-87
2022/03/24 06:11:01;;;;;;;64.60;32.03;;;11.20;58.10;;;;;;5078481;28;20237;-86
2022/03/24 06:13:27;;;;;;;65.10;29.27;;;11.80;56.80;;;;;;5076598;28;20207;-87
2022/03/24 06:15:54;;;;;;;57.70;31.48;;;12.30;55.30;;;;;;5073733;28;20181;-87
2022/03/24 06:18:20;;;;;;;59.33;30.48;;;12.80;53.50;;;;;;5064210;28;20234;-89
2022/03/24 06:20:52;;;;;;;73.85;35.95;;;13.40;52.20;;;;;;5059473;28;20177;-89
2022/03/24 06:23:17;;;;;;;69.35;33.92;;;14.10;50.40;;;;;;5076402;28;20635;-89
2022/03/24 06:25:43;;;;;;;67.80;35.43;;;14.50;48.60;;;;;;5098827;28;20194;-90
2022/03/24 06:28:09;;;;;;;62.90;34.80;;;15.00;47.30;;;;;;5077656;28;20263;-90
2022/03/24 06:30:35;;;;;;;81.00;38.37;;;15.60;45.80;;;;;;5077214;28;20941;-91
2022/03/24 06:33:01;;;;;;;61.97;36.10;;;16.10;44.50;;;;;;5077005;28;20421;-90
2022/03/24 06:35:27;;;;;;;70.17;36.70;;;16.50;43.30;;;;;;5077381;28;20195;-89
2022/03/24 06:37:53;;;;;;;70.03;35.38;;;16.60;41.90;;;;;;5083494;28;20835;-90
2022/03/24 06:40:20;;;;;;;62.55;35.53;;;16.40;41.70;;;;;;5063898;28;20305;-91
2022/03/24 06:42:45;;;;;;;56.30;36.03;;;16.10;42.20;;;;;;5057106;28;20226;-90
2022/03/24 06:45:12;;;;;;;58.40;37.00;;;15.70;42.70;;;;;;5056323;28;20176;-90
2022/03/24 06:47:39;;;;;;;66.60;37.70;;;15.50;42.90;;;;;;5079903;28;20180;-89
2022/03/24 06:50:06;;;;;;;59.22;35.00;;;15.20;43.30;;;;;;5073661;28;20227;-88
2022/03/24 06:52:32;;;;;;;69.13;35.75;;;14.80;44.10;;;;;;5105991;28;20172;-88
2022/03/24 06:54:58;;;;;;;61.97;35.60;;;14.40;45.00;;;;;;5099653;28;20193;-89
2022/03/24 06:57:24;;;;;;;61.50;37.90;;;14.00;46.30;;;;;;5087858;28;20180;-91
2022/03/24 06:59:50;;;;;;;73.05;39.20;;;13.70;47.30;;;;;;5061869;28;20711;-89
2022/03/24 07:02:15;;;;;;;60.23;34.27;;;13.40;48.00;;;;;;5061808;28;20262;-88
2022/03/24 07:04:42;;;;;;;64.80;34.63;;;13.30;48.80;;;;;;5078332;28;21016;-90
2022/03/24 07:07:08;;;;;;;63.30;33.45;;;13.20;49.40;;;;;;5082935;28;20206;-90
2022/03/24 07:09:35;;;;;;;70.93;34.90;;;13.20;49.80;;;;;;5087929;28;20223;-90
2022/03/24 07:12:01;;;;;;;62.90;33.92;;;13.10;50.00;;;;;;5081504;28;20451;-89
2022/03/24 07:14:29;;;;;;;68.90;33.97;;;12.90;50.50;;;;;;5071312;28;20262;-90
2022/03/24 07:16:55;;;;;;;61.13;33.78;;;12.90;50.90;;;;;;5083585;28;20575;-90
2022/03/24 07:19:21;;;;;;;70.63;33.87;;;12.90;51.10;;;;;;5062234;28;20192;-89
2022/03/24 07:21:46;;;;;;;63.33;34.93;;;12.80;51.40;;;;;;5071313;28;20520;-89
2022/03/24 07:24:12;;;;;;;79.17;35.83;;;12.70;51.50;;;;;;5080655;28;20176;-89
2022/03/24 07:26:39;;;;;;;84.88;36.17;;;12.70;52.00;;;;;;5082047;28;20508;-89
2022/03/24 07:29:05;;;;;;;65.15;33.00;;;12.70;52.10;;;;;;5084276;28;20195;-88
2022/03/24 07:31:31;;;;;;;73.35;35.72;;;12.70;53.00;;;;;;5098914;28;20200;-89
2022/03/24 07:33:58;;;;;;;76.72;39.15;;;12.60;52.80;;;;;;5085252;28;20190;-89
2022/03/24 07:36:25;;;;;;;84.95;37.25;;;12.80;52.70;;;;;;5088253;28;20178;-88
2022/03/24 07:38:53;;;;;;;75.47;36.08;;;12.80;52.60;;;;;;5091478;28;20230;-88
2022/03/24 07:41:19;;;;;;;73.13;36.80;;;12.90;52.70;;;;;;5090095;28;20203;-89
2022/03/24 07:43:45;;;;;;;80.75;37.65;;;12.90;52.50;;;;;;5068368;28;20199;-88
2022/03/24 07:46:11;;;;;;;64.97;36.37;;;13.10;52.20;;;;;;5090395;28;20183;-89
2022/03/24 07:48:38;;;;;;;78.30;38.28;;;13.10;52.20;;;;;;5091677;28;20462;-89
2022/03/24 07:51:06;;;;;;;84.32;40.35;;;13.20;52.30;;;;;;5068879;28;20283;-90
2022/03/24 07:53:31;;;;;;;75.30;38.03;;;13.30;51.90;;;;;;5081598;28;20182;-90
2022/03/24 07:55:59;;;;;;;70.70;38.23;;;13.20;51.40;;;;;;5101247;28;20535;-90
2022/03/24 07:58:25;;;;;;;82.07;39.05;;;13.20;52.20;;;;;;5082904;28;20572;-87
2022/03/24 08:00:52;;;;;;;84.78;40.80;;;13.30;52.10;;;;;;5079288;28;20180;-90
2022/03/24 08:03:19;;;;;;;92.72;39.97;;;13.40;50.80;;;;;;5061187;28;20177;-90
2022/03/24 08:05:50;;;;;;;79.60;41.05;;;13.50;50.20;;;;;;5061140;28;20600;-90
2022/03/24 08:08:17;;;;;;;75.38;37.15;;;13.40;48.80;;;;;;5061573;28;20180;-90
2022/03/24 08:10:45;;;;;;;70.68;35.67;;;13.40;48.00;;;;;;5076527;28;20249;-89
2022/03/24 08:13:15;;;;;;;82.53;38.85;;;13.40;47.50;;;;;;5089195;28;20176;-90
2022/03/24 08:15:42;;;;;;;79.18;39.78;;;13.60;47.50;;;;;;5082107;28;20184;-90
2022/03/24 08:18:09;;;;;;;91.95;41.33;;;13.70;46.80;;;;;;5081791;28;20183;-89
2022/03/24 08:20:36;;;;;;;73.78;35.88;;;13.90;46.60;;;;;;5099644;28;20203;-90
2022/03/24 08:23:03;;;;;;;82.28;37.42;;;14.10;46.10;;;;;;5079671;28;20619;-90
2022/03/24 08:25:29;;;;;;;74.40;34.10;;;14.30;45.30;;;;;;5079829;28;20180;-90
2022/03/24 08:27:55;;;;;;;83.97;37.20;;;14.30;44.40;;;;;;5080873;28;20550;-90
2022/03/24 08:30:22;;;;;;;74.00;35.47;;;14.40;44.10;;;;;;5082046;28;20204;-90
2022/03/24 08:32:48;;;;;;;73.13;37.70;;;14.50;43.80;;;;;;5082277;28;20167;-90
2022/03/24 08:35:14;;;;;;;82.73;37.07;;;14.50;44.00;;;;;;5099834;28;20546;-90
2022/03/24 08:37:40;;;;;;;78.15;34.90;;;14.60;43.90;;;;;;5067024;28;20422;-87
2022/03/24 08:40:06;;;;;;;79.50;35.20;;;14.60;44.10;;;;;;5093804;28;20225;-88
2022/03/24 08:42:37;;;;;;;82.95;38.72;;;14.40;44.50;;;;;;5098081;28;20191;-87
2022/03/24 08:45:04;;;;;;;83.90;38.75;;;14.40;44.30;;;;;;5098474;28;20274;-86
2022/03/24 08:47:30;;;;;;;76.50;34.42;;;14.40;44.70;;;;;;5115939;28;20179;-88
2022/03/24 08:49:56;;;;;;;77.15;35.00;;;14.50;44.60;;;;;;5097673;28;20282;-88
2022/03/24 08:52:21;;;;;;;73.00;35.50;;;14.50;44.10;;;;;;5114615;28;20191;-87
2022/03/24 08:54:48;;;;;;;77.90;36.73;;;14.60;43.80;;;;;;5093920;28;20564;-87
2022/03/24 08:57:14;;;;;;;88.65;37.47;;;14.60;43.60;;;;;;5072714;28;20941;-87
2022/03/24 08:59:40;;;;;;;81.50;37.03;;;14.70;43.40;;;;;;5080081;28;20297;-88
2022/03/24 09:02:05;;;;;;;84.77;35.87;;;14.80;42.80;;;;;;5085987;28;20176;-87
2022/03/24 09:04:31;;;;;;;78.13;37.57;;;14.90;42.50;;;;;;5086224;28;20421;-86
2022/03/24 09:06:57;;;;;;;81.03;37.03;;;14.80;42.70;;;;;;5080514;28;20421;-88
2022/03/24 09:09:23;;;;;;;80.00;35.17;;;14.70;42.90;;;;;;5096971;28;20235;-89
2022/03/24 09:11:49;;;;;;;66.83;35.23;;;14.80;42.80;;;;;;5058697;28;20477;-90
2022/03/24 09:14:19;;;;;;;75.35;39.15;;;14.90;41.30;;;;;;5060252;28;20179;-89
2022/03/24 09:16:45;;;;;;;94.22;37.97;;;15.20;40.60;;;;;;5060359;28;20256;-89
2022/03/24 09:19:12;;;;;;;73.57;34.63;;;15.50;40.10;;;;;;5060621;28;20271;-89
2022/03/24 09:21:38;;;;;;;84.38;38.05;;;15.60;39.60;;;;;;5061875;28;20250;-89
2022/03/24 09:24:04;;;;;;;67.80;36.67;;;15.60;39.60;;;;;;5058226;28;20181;-90
2022/03/24 09:26:29;;;;;;;75.43;37.78;;;15.80;38.70;;;;;;5044062;28;20525;-90
2022/03/24 09:28:56;;;;;;;71.40;37.37;;;15.90;38.40;;;;;;5061556;28;20200;-89
2022/03/24 09:31:22;;;;;;;78.68;36.78;;;15.80;38.10;;;;;;5074457;28;20226;-89
2022/03/24 09:33:48;;;;;;;75.37;37.97;;;15.90;37.70;;;;;;5079001;28;20252;-88
2022/03/24 09:36:14;;;;;;;64.30;33.33;;;15.90;38.20;;;;;;5079492;28;20177;-90
2022/03/24 09:38:39;;;;;;;67.70;36.03;;;15.80;39.10;;;;;;5062722;28;20202;-90
2022/03/24 09:41:06;;;;;;;69.03;36.60;;;16.00;38.60;;;;;;5059882;28;20461;-89
2022/03/24 09:43:36;;;;;;;72.80;38.25;;;16.00;38.70;;;;;;5058069;28;20283;-89
2022/03/24 09:46:03;;;;;;;65.03;36.75;;;15.80;39.00;;;;;;5058981;28;20184;-88
2022/03/24 09:48:29;;;;;;;73.40;36.17;;;16.10;37.20;;;;;;5058429;28;20196;-88
2022/03/24 09:50:55;;;;;;;69.40;37.38;;;16.30;36.90;;;;;;5058404;28;20212;-88
2022/03/24 09:53:23;;;;;;;76.70;37.57;;;16.50;36.50;;;;;;5094218;28;20176;-88
2022/03/24 09:55:50;;;;;;;77.18;38.10;;;16.60;36.50;;;;;;5077802;28;20738;-88
2022/03/24 09:58:15;;;;;;;68.65;35.53;;;16.40;36.80;;;;;;5068893;28;20183;-88
2022/03/24 10:00:41;;;;;;;62.73;37.20;;;16.40;36.70;;;;;;5078688;28;20168;-87
2022/03/24 10:03:18;;;;;;;65.27;37.83;;;16.70;36.30;;;;;;5084291;28;20411;-88
2022/03/24 10:06:07;;;;;;;71.97;36.13;;;16.80;35.60;;;;;;5067134;28;20426;-88
2022/03/24 10:08:34;;;;;;;69.75;35.90;;;16.70;35.40;;;;;;5058975;28;20235;-89
2022/03/24 10:11:06;;;;;;;69.60;36.38;;;16.90;35.40;;;;;;5082979;28;20204;-88
2022/03/24 10:13:42;;;;;;;65.20;36.60;;;16.90;34.90;;;;;;5085354;28;20157;-88
2022/03/24 10:16:09;;;;;;;78.63;37.90;;;17.10;34.40;;;;;;5060180;28;20176;-87
2022/03/24 10:18:35;;;;;;;67.35;36.00;;;17.10;34.30;;;;;;5059051;28;20209;-88
2022/03/24 10:21:03;;;;;;;65.57;36.63;;;17.00;34.10;;;;;;5078974;28;20180;-87
2022/03/24 10:23:33;;;;;;;57.22;35.83;;;17.00;34.50;;;;;;5060671;28;20427;-88
2022/03/24 10:26:04;;;;;;;69.05;35.75;;;17.20;33.50;;;;;;5063609;28;20173;-89
2022/03/24 10:28:30;;;;;;;56.67;31.48;;;17.30;33.20;;;;;;5063316;28;20218;-90
2022/03/24 10:30:59;;;;;;;51.80;29.20;;;17.40;31.60;;;;;;5060721;28;20295;-89
2022/03/24 10:33:47;;;;;;;48.65;29.63;;;17.30;30.00;;;;;;5060548;28;20732;-88
2022/03/24 10:36:25;;;;;;;59.38;30.85;;;17.60;30.00;;;;;;5061304;28;20169;-89
2022/03/24 10:38:53;;;;;;;47.13;26.65;;;17.60;30.00;;;;;;5062217;28;20203;-90
2022/03/24 10:41:31;;;;;;;57.53;32.65;;;17.70;30.00;;;;;;5061872;28;20188;-90
2022/03/24 10:44:02;;;;;;;51.95;28.70;;;17.70;30.00;;;;;;5084708;28;20312;-90
2022/03/24 10:46:30;;;;;;;49.45;27.50;;;17.70;30.10;;;;;;5082853;28;20180;-91
2022/03/24 10:48:56;;;;;;;49.58;27.85;;;17.50;30.80;;;;;;5071892;28;20210;-89
2022/03/24 10:51:28;;;;;;;53.80;26.15;;;17.40;30.50;;;;;;5081659;28;20203;-90
2022/03/24 10:54:10;;;;;;;42.30;23.58;;;17.50;30.10;;;;;;5062057;28;20176;-90
2022/03/24 10:56:39;;;;;;;49.35;27.35;;;17.60;30.00;;;;;;5083901;28;20164;-90
2022/03/24 10:59:06;;;;;;;40.92;22.95;;;17.70;30.00;;;;;;5064250;28;20204;-90
2022/03/24 11:01:33;;;;;;;40.67;23.20;;;17.70;30.00;;;;;;5092963;28;20194;-90
2022/03/24 11:03:59;;;;;;;35.25;21.65;;;17.70;30.00;;;;;;5092176;28;20198;-88
2022/03/24 11:06:27;;;;;;;26.63;14.05;;;17.90;30.00;;;;;;5101356;28;20643;-88
2022/03/24 11:09:00;;;;;;;22.77;10.80;;;17.70;30.00;;;;;;5101692;28;20218;-88
2022/03/24 11:11:28;;;;;;;31.02;11.45;;;17.90;30.00;;;;;;5101181;28;20207;-88
2022/03/24 11:14:02;;;;;;;21.08;10.45;;;18.10;30.00;;;;;;5100567;28;20171;-89
2022/03/24 11:16:34;;;;;;;29.15;14.88;;;17.90;30.00;;;;;;5119399;28;20181;-88
2022/03/24 11:19:02;;;;;;;34.72;17.27;;;18.00;30.00;;;;;;5099305;28;20200;-90
2022/03/24 11:21:58;;;;;;;32.58;17.13;;;17.90;30.00;;;;;;5090215;28;20171;-90
2022/03/24 11:24:24;;;;;;;26.10;14.25;;;18.10;30.00;;;;;;5103015;28;20175;-91
2022/03/24 11:26:51;;;;;;;34.72;15.65;;;18.10;30.00;;;;;;5090547;28;20188;-89
2022/03/24 11:29:19;;;;;;;43.40;21.73;;;18.10;30.00;;;;;;5087340;28;20245;-90
2022/03/24 11:31:45;;;;;;;32.30;17.48;;;18.00;30.00;;;;;;5105184;28;20751;-90
2022/03/24 11:34:12;;;;;;;31.70;16.33;;;17.90;30.00;;;;;;5103871;28;20535;-89
2022/03/24 11:36:37;;;;;;;30.60;15.38;;;17.90;30.00;;;;;;5085160;28;20203;-90
2022/03/24 11:39:09;;;;;;;27.23;14.03;;;18.00;30.00;;;;;;5085008;28;20196;-90
2022/03/24 11:41:52;;;;;;;29.60;14.98;;;18.10;30.00;;;;;;5088170;28;20179;-90
2022/03/24 11:44:38;;;;;;;26.20;14.88;;;18.20;30.00;;;;;;5084211;28;20228;-90
2022/03/24 11:47:15;;;;;;;24.02;12.93;;;18.40;30.00;;;;;;5087414;28;20232;-90
2022/03/24 11:49:41;;;;;;;30.08;13.27;;;18.70;30.00;;;;;;5100804;28;20236;-90
2022/03/24 11:52:07;;;;;;;32.15;13.23;;;18.80;30.00;;;;;;5081658;28;20260;-90
2022/03/24 11:54:39;;;;;;;29.77;12.40;;;18.90;30.00;;;;;;5081536;28;20180;-90
2022/03/24 11:57:34;;;;;;;21.65;11.98;;;18.90;30.00;;;;;;5081331;28;20179;-89
2022/03/24 12:00:12;;;;;;;27.67;15.02;;;18.80;30.00;;;;;;5079573;28;20704;-89
2022/03/24 12:02:38;;;;;;;20.90;12.25;;;18.80;30.00;;;;;;5078930;28;20180;-90
2022/03/24 12:05:05;;;;;;;27.17;13.77;;;18.80;30.00;;;;;;5067532;28;20187;-88
2022/03/24 12:07:31;;;;;;;18.10;10.43;;;18.50;30.00;;;;;;5065158;28;20213;-90
2022/03/24 12:09:58;;;;;;;26.10;12.00;;;18.50;30.00;;;;;;5091889;28;20298;-89
2022/03/24 12:12:25;;;;;;;36.75;17.55;;;18.20;30.00;;;;;;5080489;28;20184;-87
2022/03/24 12:14:54;;;;;;;19.20;11.30;;;18.20;30.00;;;;;;5080640;28;20185;-90
2022/03/24 12:17:31;;;;;;;22.63;13.43;;;18.30;30.00;;;;;;5068177;28;20180;-91
2022/03/24 12:19:58;;;;;;;27.20;11.63;;;18.50;30.00;;;;;;5088251;28;20196;-87
2022/03/24 12:22:31;;;;;;;26.33;12.18;;;18.80;30.00;;;;;;5070845;28;20173;-87
2022/03/24 12:24:59;;;;;;;21.35;11.93;;;18.70;30.00;;;;;;5066249;28;20173;-88
2022/03/24 12:27:33;;;;;;;21.23;11.38;;;18.80;30.00;;;;;;5061922;28;20177;-88
2022/03/24 12:30:14;;;;;;;28.38;11.02;;;18.80;30.00;;;;;;5072710;28;20200;-91
2022/03/24 12:32:41;;;;;;;30.08;12.65;;;18.80;30.00;;;;;;5086473;28;20175;-90